createdAt,value
2023-04-22T00:01:00.640Z,96854.00
2023-04-22T00:03:28.314Z,96857.00
2023-04-22T00:05:55.393Z,96845.00
2023-04-22T00:08:21.658Z,96856.00
2023-04-22T00:10:48.099Z,96856.00
2023-04-22T00:13:14.270Z,96851.00
2023-04-22T00:15:40.703Z,96856.00
2023-04-22T00:18:13.359Z,96848.00
2023-04-22T00:20:45.280Z,96856.00
2023-04-22T00:23:12.822Z,96866.00
2023-04-22T00:25:39.946Z,96841.00
2023-04-22T00:28:06.604Z,96858.00
2023-04-22T00:30:32.918Z,96851.00
2023-04-22T00:32:59.206Z,96857.00
2023-04-22T00:35:25.659Z,96852.00
2023-04-22T00:37:52.207Z,96849.00
2023-04-22T00:40:18.556Z,96842.00
2023-04-22T00:42:45.659Z,96833.00
2023-04-22T00:45:14.926Z,96852.00
2023-04-22T00:47:42.182Z,96829.00
2023-04-22T00:50:08.749Z,96838.00
2023-04-22T00:52:35.177Z,96838.00
2023-04-22T00:55:01.730Z,96838.00
2023-04-22T00:57:32.506Z,96849.00
2023-04-22T00:59:59.325Z,96842.00
2023-04-22T01:02:26.080Z,96841.00
2023-04-22T01:04:53.773Z,96837.00
2023-04-22T01:07:21.233Z,96837.00
2023-04-22T01:09:47.681Z,96829.00
2023-04-22T01:12:14.117Z,96842.00
2023-04-22T01:14:40.577Z,96860.00
2023-04-22T01:17:07.391Z,96834.00
2023-04-22T01:19:33.579Z,96824.00
2023-04-22T01:22:01.766Z,96857.00
2023-04-22T01:24:28.177Z,96838.00
2023-04-22T01:26:54.934Z,96850.00
2023-04-22T01:29:21.199Z,96832.00
2023-04-22T01:31:48.132Z,96849.00
2023-04-22T01:34:14.362Z,96840.00
2023-04-22T01:36:40.750Z,96836.00
2023-04-22T01:39:07.241Z,96837.00
2023-04-22T01:41:33.963Z,96851.00
2023-04-22T01:44:02.566Z,96835.00
2023-04-22T01:46:29.084Z,96848.00
2023-04-22T01:48:55.621Z,96845.00
2023-04-22T01:51:22.807Z,96860.00
2023-04-22T01:53:49.855Z,96859.00
2023-04-22T01:56:17.928Z,96849.00
2023-04-22T01:58:44.371Z,96873.00
2023-04-22T02:01:12.446Z,96864.00
2023-04-22T02:03:39.195Z,96865.00
2023-04-22T02:06:06.001Z,96866.00
2023-04-22T02:08:32.162Z,96879.00
2023-04-22T02:11:00.066Z,96872.00
2023-04-22T02:13:34.844Z,96871.00
2023-04-22T02:16:01.099Z,96867.00
2023-04-22T02:18:27.337Z,96870.00
2023-04-22T02:20:53.533Z,96869.00
2023-04-22T02:23:20.015Z,96861.00
2023-04-22T02:25:50.572Z,96865.00
2023-04-22T02:28:19.027Z,96865.00
2023-04-22T02:30:45.981Z,96849.00
2023-04-22T02:33:12.556Z,96859.00
2023-04-22T02:35:39.154Z,96856.00
2023-04-22T02:38:05.593Z,96846.00
2023-04-22T02:40:31.829Z,96850.00
2023-04-22T02:42:58.305Z,96859.00
2023-04-22T02:45:24.522Z,96839.00
2023-04-22T02:47:50.743Z,96835.00
2023-04-22T02:50:17.167Z,96840.00
2023-04-22T02:52:43.582Z,96845.00
2023-04-22T02:55:10.235Z,96845.00
2023-04-22T02:57:36.583Z,96830.00
2023-04-22T03:00:04.062Z,96846.00
2023-04-22T03:02:30.390Z,96845.00
2023-04-22T03:05:14.266Z,96837.00
2023-04-22T03:07:40.607Z,96830.00
2023-04-22T03:10:07.993Z,96834.00
2023-04-22T03:12:34.162Z,96828.00
2023-04-22T03:15:01.955Z,96815.00
2023-04-22T03:17:30.629Z,96814.00
2023-04-22T03:19:58.902Z,96815.00
2023-04-22T03:22:25.338Z,96815.00
2023-04-22T03:24:55.671Z,96813.00
2023-04-22T03:27:21.962Z,96806.00
2023-04-22T03:29:48.352Z,96817.00
2023-04-22T03:32:14.875Z,96825.00
2023-04-22T03:34:41.426Z,96818.00
2023-04-22T03:37:09.371Z,96823.00
2023-04-22T03:39:35.947Z,96818.00
2023-04-22T03:42:02.400Z,96822.00
2023-04-22T03:44:29.053Z,96816.00
2023-04-22T03:46:55.637Z,96816.00
2023-04-22T03:49:26.928Z,96794.00
2023-04-22T03:51:55.162Z,96818.00
2023-04-22T03:54:25.079Z,96825.00
2023-04-22T03:56:52.360Z,96808.00
2023-04-22T03:59:20.845Z,96817.00
2023-04-22T04:01:47.992Z,96809.00
2023-04-22T04:04:18.414Z,96807.00
2023-04-22T04:06:51.010Z,96809.00
2023-04-22T04:09:17.190Z,96804.00
2023-04-22T04:11:44.718Z,96799.00
2023-04-22T04:14:11.802Z,96805.00
2023-04-22T04:16:49.784Z,96800.00
2023-04-22T04:19:24.391Z,96801.00
2023-04-22T04:21:51.487Z,96794.00
2023-04-22T04:24:18.563Z,96799.00
2023-04-22T04:26:49.135Z,96796.00
2023-04-22T04:29:20.580Z,96800.00
2023-04-22T04:31:56.230Z,96796.00
2023-04-22T04:34:23.117Z,96803.00
2023-04-22T04:36:49.871Z,96785.00
2023-04-22T04:39:22.454Z,96787.00
2023-04-22T04:41:49.102Z,96783.00
2023-04-22T04:44:16.327Z,96775.00
2023-04-22T04:46:43.521Z,96790.00
2023-04-22T04:49:11.848Z,96764.00
2023-04-22T04:51:49.891Z,96779.00
2023-04-22T04:54:16.531Z,96781.00
2023-04-22T04:56:43.134Z,96776.00
2023-04-22T04:59:10.096Z,96774.00
2023-04-22T05:01:38.074Z,96776.00
2023-04-22T05:04:08.311Z,96784.00
2023-04-22T05:06:38.023Z,96795.00
2023-04-22T05:09:04.828Z,96788.00
2023-04-22T05:11:31.016Z,96780.00
2023-04-22T05:14:00.161Z,96787.00
2023-04-22T05:16:32.038Z,96792.00
2023-04-22T05:18:58.917Z,96777.00
2023-04-22T05:21:25.135Z,96770.00
2023-04-22T05:23:51.576Z,96794.00
2023-04-22T05:26:19.023Z,96785.00
2023-04-22T05:28:47.714Z,96774.00
2023-04-22T05:31:16.320Z,96777.00
2023-04-22T05:33:42.774Z,96780.00
2023-04-22T05:36:09.280Z,96789.00
2023-04-22T05:38:35.460Z,96780.00
2023-04-22T05:41:01.593Z,96787.00
2023-04-22T05:43:28.485Z,96791.00
2023-04-22T05:46:05.705Z,96783.00
2023-04-22T05:48:34.193Z,96792.00
2023-04-22T05:51:03.855Z,96807.00
2023-04-22T05:53:30.699Z,96779.00
2023-04-22T05:55:59.556Z,96792.00
2023-04-22T05:58:25.784Z,96792.00
2023-04-22T06:00:59.084Z,96786.00
2023-04-22T06:03:48.988Z,96789.00
2023-04-22T06:06:15.947Z,96805.00
2023-04-22T06:08:42.147Z,96796.00
2023-04-22T06:11:10.352Z,96781.00
2023-04-22T06:13:36.834Z,96785.00
2023-04-22T06:16:04.421Z,96775.00
2023-04-22T06:18:32.124Z,96802.00
2023-04-22T06:20:59.100Z,96795.00
2023-04-22T06:23:25.559Z,96788.00
2023-04-22T06:25:51.794Z,96789.00
2023-04-22T06:28:18.287Z,96788.00
2023-04-22T06:30:46.359Z,96780.00
2023-04-22T06:33:12.886Z,96782.00
2023-04-22T06:35:39.179Z,96780.00
2023-04-22T06:38:05.457Z,96787.00
2023-04-22T06:40:39.453Z,96781.00
2023-04-22T06:43:17.491Z,96774.00
2023-04-22T06:46:02.561Z,96776.00
2023-04-22T06:48:47.757Z,96772.00
2023-04-22T06:51:27.804Z,96781.00
2023-04-22T06:53:55.152Z,96773.00
2023-04-22T06:56:21.935Z,96768.00
2023-04-22T06:58:48.144Z,96768.00
2023-04-22T07:01:14.301Z,96769.00
2023-04-22T07:03:41.330Z,96754.00
2023-04-22T07:06:10.755Z,96760.00
2023-04-22T07:08:37.096Z,96766.00
2023-04-22T07:11:03.437Z,96767.00
2023-04-22T07:13:33.940Z,96772.00
2023-04-22T07:16:00.928Z,96772.00
2023-04-22T07:18:28.644Z,96773.00
2023-04-22T07:20:54.996Z,96787.00
2023-04-22T07:23:21.513Z,96774.00
2023-04-22T07:25:47.945Z,96770.00
2023-04-22T07:28:14.206Z,96771.00
2023-04-22T07:30:43.096Z,96772.00
2023-04-22T07:33:09.612Z,96763.00
2023-04-22T07:35:36.830Z,96762.00
2023-04-22T07:38:02.995Z,96765.00
2023-04-22T07:40:29.232Z,96776.00
2023-04-22T07:42:55.502Z,96757.00
2023-04-22T07:45:21.636Z,96764.00
2023-04-22T07:47:48.115Z,96767.00
2023-04-22T07:50:14.296Z,96749.00
2023-04-22T07:52:40.715Z,96751.00
2023-04-22T07:55:08.095Z,96754.00
2023-04-22T07:57:38.128Z,96750.00
2023-04-22T08:00:09.286Z,96744.00
2023-04-22T08:02:38.958Z,96736.00
2023-04-22T08:05:09.072Z,96741.00
2023-04-22T08:07:35.546Z,96745.00
2023-04-22T08:10:02.271Z,96743.00
2023-04-22T08:12:28.487Z,96728.00
2023-04-22T08:14:54.934Z,96727.00
2023-04-22T08:17:22.251Z,96732.00
2023-04-22T08:19:49.445Z,96733.00
2023-04-22T08:22:18.073Z,96718.00
2023-04-22T08:24:44.523Z,96723.00
2023-04-22T08:27:10.870Z,96724.00
2023-04-22T08:29:37.800Z,96730.00
2023-04-22T08:32:04.660Z,96710.00
2023-04-22T08:34:30.967Z,96728.00
2023-04-22T08:36:57.289Z,96720.00
2023-04-22T08:39:23.451Z,96719.00
2023-04-22T08:41:51.000Z,96720.00
2023-04-22T08:44:18.600Z,96718.00
2023-04-22T08:46:48.523Z,96709.00
2023-04-22T08:49:15.247Z,96710.00
2023-04-22T08:51:43.427Z,96704.00
2023-04-22T08:54:11.204Z,96694.00
2023-04-22T08:56:42.926Z,96693.00
2023-04-22T08:59:13.210Z,96702.00
2023-04-22T09:01:43.751Z,96699.00
2023-04-22T09:04:13.701Z,96698.00
2023-04-22T09:06:39.949Z,96702.00
2023-04-22T09:09:09.984Z,96698.00
2023-04-22T09:11:40.188Z,96698.00
2023-04-22T09:14:06.404Z,96677.00
2023-04-22T09:16:41.567Z,96692.00
2023-04-22T09:19:12.715Z,96680.00
2023-04-22T09:21:40.913Z,96685.00
2023-04-22T09:24:10.322Z,96697.00
2023-04-22T09:26:41.130Z,96701.00
2023-04-22T09:29:13.128Z,96703.00
2023-04-22T09:31:40.124Z,96683.00
2023-04-22T09:34:07.217Z,96705.00
2023-04-22T09:36:33.499Z,96677.00
2023-04-22T09:39:04.190Z,96687.00
2023-04-22T09:41:37.864Z,96692.00
2023-04-22T09:44:09.495Z,96680.00
2023-04-22T09:46:35.993Z,96684.00
2023-04-22T09:49:02.490Z,96679.00
2023-04-22T09:51:30.196Z,96677.00
2023-04-22T09:54:04.374Z,96685.00
2023-04-22T09:56:53.231Z,96673.00
2023-04-22T09:59:21.722Z,96667.00
2023-04-22T10:01:51.215Z,96673.00
2023-04-22T10:04:20.590Z,96678.00
2023-04-22T10:06:48.867Z,96678.00
2023-04-22T10:09:19.819Z,96670.00
2023-04-22T10:11:48.353Z,96675.00
2023-04-22T10:14:14.631Z,96664.00
2023-04-22T10:16:46.225Z,96668.00
2023-04-22T10:19:21.510Z,96664.00
2023-04-22T10:21:54.172Z,96674.00
2023-04-22T10:24:21.297Z,96670.00
2023-04-22T10:26:56.881Z,96669.00
2023-04-22T10:29:26.599Z,96667.00
2023-04-22T10:32:17.975Z,96659.00
2023-04-22T10:34:46.990Z,96662.00
2023-04-22T10:37:17.137Z,96670.00
2023-04-22T10:40:08.359Z,96664.00
2023-04-22T10:42:35.495Z,96668.00
2023-04-22T10:45:04.096Z,96652.00
2023-04-22T10:47:35.507Z,96649.00
2023-04-22T10:50:26.191Z,96654.00
2023-04-22T10:53:35.222Z,96650.00
2023-04-22T10:56:02.713Z,96641.00
2023-04-22T10:58:33.420Z,96651.00
2023-04-22T11:01:02.343Z,96637.00
2023-04-22T11:03:30.474Z,96643.00
2023-04-22T11:06:29.764Z,96651.00
2023-04-22T11:09:12.148Z,96646.00
2023-04-22T11:11:38.296Z,96650.00
2023-04-22T11:14:05.270Z,96647.00
2023-04-22T11:16:31.710Z,96650.00
2023-04-22T11:18:58.656Z,96650.00
2023-04-22T11:21:25.505Z,96651.00
2023-04-22T11:23:52.442Z,96661.00
2023-04-22T11:26:18.896Z,96655.00
2023-04-22T11:28:46.726Z,96654.00
2023-04-22T11:31:14.423Z,96656.00
2023-04-22T11:33:40.722Z,96668.00
2023-04-22T11:36:12.640Z,96651.00
2023-04-22T11:38:39.150Z,96661.00
2023-04-22T11:41:05.502Z,96665.00
2023-04-22T11:43:31.948Z,96656.00
2023-04-22T11:45:58.471Z,96640.00
2023-04-22T11:48:25.036Z,96657.00
2023-04-22T11:51:12.298Z,96650.00
2023-04-22T11:53:40.481Z,96664.00
2023-04-22T11:56:07.288Z,96656.00
2023-04-22T11:58:39.028Z,96663.00
2023-04-22T12:01:05.774Z,96652.00
2023-04-22T12:03:34.064Z,96659.00
2023-04-22T12:06:03.771Z,96674.00
2023-04-22T12:08:41.214Z,96674.00
2023-04-22T12:11:09.935Z,96669.00
2023-04-22T12:13:36.169Z,96669.00
2023-04-22T12:16:14.194Z,96660.00
2023-04-22T12:18:54.803Z,96664.00
2023-04-22T12:21:27.546Z,96679.00
2023-04-22T12:24:00.072Z,96675.00
2023-04-22T12:26:27.818Z,96670.00
2023-04-22T12:28:57.505Z,96664.00
2023-04-22T12:31:24.812Z,96677.00
2023-04-22T12:33:51.948Z,96669.00
2023-04-22T12:36:25.677Z,96679.00
2023-04-22T12:38:52.036Z,96674.00
2023-04-22T12:41:18.374Z,96674.00
2023-04-22T12:43:44.659Z,96659.00
2023-04-22T12:46:11.004Z,96652.00
2023-04-22T12:48:37.774Z,96671.00
2023-04-22T12:51:05.752Z,96669.00
2023-04-22T12:53:32.168Z,96659.00
2023-04-22T12:55:58.939Z,96667.00
2023-04-22T12:58:26.342Z,96674.00
2023-04-22T13:00:52.647Z,96671.00
2023-04-22T13:03:19.606Z,96674.00
2023-04-22T13:05:45.931Z,96668.00
2023-04-22T13:08:12.213Z,96666.00
2023-04-22T13:10:38.426Z,96667.00
2023-04-22T13:13:17.901Z,96677.00
2023-04-22T13:15:47.569Z,96671.00
2023-04-22T13:18:15.845Z,96665.00
2023-04-22T13:20:42.491Z,96663.00
2023-04-22T13:23:09.726Z,96665.00
2023-04-22T13:25:36.609Z,96671.00
2023-04-22T13:28:02.924Z,96660.00
2023-04-22T13:30:29.074Z,96665.00
2023-04-22T13:32:55.296Z,96648.00
2023-04-22T13:35:21.689Z,96637.00
2023-04-22T13:37:47.833Z,96652.00
2023-04-22T13:40:14.314Z,96656.00
2023-04-22T13:42:41.141Z,96652.00
2023-04-22T13:45:08.116Z,96648.00
2023-04-22T13:47:37.353Z,96652.00
2023-04-22T13:50:05.578Z,96649.00
2023-04-22T13:52:34.293Z,96644.00
2023-04-22T13:55:02.662Z,96653.00
2023-04-22T13:57:28.871Z,96648.00
2023-04-22T13:59:55.116Z,96644.00
2023-04-22T14:02:21.594Z,96640.00
2023-04-22T14:04:47.882Z,96645.00
2023-04-22T14:07:14.114Z,96644.00
2023-04-22T14:09:40.691Z,96648.00
2023-04-22T14:12:07.752Z,96648.00
2023-04-22T14:14:34.544Z,96633.00
2023-04-22T14:17:00.890Z,96643.00
2023-04-22T14:19:29.524Z,96634.00
2023-04-22T14:21:57.046Z,96633.00
2023-04-22T14:24:23.781Z,96642.00
2023-04-22T14:26:51.792Z,96650.00
2023-04-22T14:29:19.102Z,96646.00
2023-04-22T14:31:45.697Z,96639.00
2023-04-22T14:34:15.188Z,96639.00
2023-04-22T14:36:41.670Z,96637.00
2023-04-22T14:39:07.897Z,96633.00
2023-04-22T14:41:34.706Z,96647.00
2023-04-22T14:44:00.917Z,96653.00
2023-04-22T14:46:27.167Z,96652.00
2023-04-22T14:48:53.365Z,96652.00
2023-04-22T14:51:19.610Z,96664.00
2023-04-22T14:53:46.044Z,96662.00
2023-04-22T14:56:12.267Z,96670.00
2023-04-22T14:58:38.806Z,96667.00
2023-04-22T15:01:07.427Z,96660.00
2023-04-22T15:03:35.017Z,96666.00
2023-04-22T15:06:01.500Z,96666.00
2023-04-22T15:08:27.977Z,96660.00
2023-04-22T15:10:54.470Z,96676.00
2023-04-22T15:13:20.625Z,96669.00
2023-04-22T15:15:47.204Z,96671.00
2023-04-22T15:18:13.811Z,96664.00
2023-04-22T15:20:40.580Z,96677.00
2023-04-22T15:23:06.775Z,96689.00
2023-04-22T15:25:33.049Z,96693.00
2023-04-22T15:27:59.211Z,96694.00
2023-04-22T15:30:25.727Z,96693.00
2023-04-22T15:32:51.936Z,96696.00
2023-04-22T15:35:19.408Z,96693.00
2023-04-22T15:37:45.767Z,96695.00
2023-04-22T15:40:12.008Z,96700.00
2023-04-22T15:42:39.830Z,96704.00
2023-04-22T15:45:07.169Z,96706.00
2023-04-22T15:47:35.562Z,96706.00
2023-04-22T15:50:08.080Z,96702.00
2023-04-22T15:52:36.775Z,96686.00
2023-04-22T15:55:04.740Z,96695.00
2023-04-22T15:57:33.560Z,96694.00
2023-04-22T16:00:11.800Z,96707.00
2023-04-22T16:02:43.785Z,96703.00
2023-04-22T16:05:11.522Z,96689.00
2023-04-22T16:07:39.548Z,96689.00
2023-04-22T16:10:07.146Z,96687.00
2023-04-22T16:12:34.340Z,96681.00
2023-04-22T16:15:01.428Z,96683.00
2023-04-22T16:17:28.123Z,96680.00
2023-04-22T16:19:54.583Z,96668.00
2023-04-22T16:22:20.795Z,96677.00
2023-04-22T16:24:47.247Z,96679.00
2023-04-22T16:27:15.800Z,96664.00
2023-04-22T16:29:42.400Z,96669.00
2023-04-22T16:32:09.086Z,96656.00
2023-04-22T16:34:36.080Z,96656.00
2023-04-22T16:37:02.511Z,96670.00
2023-04-22T16:39:28.763Z,96666.00
2023-04-22T16:41:55.094Z,96657.00
2023-04-22T16:44:21.577Z,96665.00
2023-04-22T16:46:47.786Z,96665.00
2023-04-22T16:49:14.323Z,96661.00
2023-04-22T16:51:40.484Z,96654.00
2023-04-22T16:54:07.162Z,96674.00
2023-04-22T16:56:33.643Z,96658.00
2023-04-22T16:59:00.117Z,96658.00
2023-04-22T17:01:26.301Z,96658.00
2023-04-22T17:03:52.758Z,96655.00
2023-04-22T17:06:19.014Z,96658.00
2023-04-22T17:08:45.331Z,96668.00
2023-04-22T17:11:11.552Z,96661.00
2023-04-22T17:13:37.756Z,96658.00
2023-04-22T17:16:04.464Z,96655.00
2023-04-22T17:18:30.942Z,96657.00
2023-04-22T17:20:57.218Z,96671.00
2023-04-22T17:23:23.671Z,96667.00
2023-04-22T17:25:50.187Z,96663.00
2023-04-22T17:28:16.434Z,96669.00
2023-04-22T17:30:42.894Z,96662.00
2023-04-22T17:33:09.169Z,96667.00
2023-04-22T17:35:35.326Z,96665.00
2023-04-22T17:38:01.646Z,96673.00
2023-04-22T17:40:28.177Z,96673.00
2023-04-22T17:42:54.853Z,96660.00
2023-04-22T17:45:21.085Z,96671.00
2023-04-22T17:47:47.958Z,96671.00
2023-04-22T17:50:14.272Z,96666.00
2023-04-22T17:52:40.844Z,96682.00
2023-04-22T17:55:08.381Z,96667.00
2023-04-22T17:57:34.789Z,96680.00
2023-04-22T18:00:01.033Z,96677.00
2023-04-22T18:02:27.451Z,96675.00
2023-04-22T18:04:53.969Z,96681.00
2023-04-22T18:07:20.148Z,96688.00
2023-04-22T18:09:47.249Z,96685.00
2023-04-22T18:12:13.833Z,96684.00
2023-04-22T18:14:40.615Z,96692.00
2023-04-22T18:17:06.864Z,96691.00
2023-04-22T18:19:33.061Z,96699.00
2023-04-22T18:22:00.687Z,96701.00
2023-04-22T18:24:27.897Z,96710.00
2023-04-22T18:26:54.229Z,96711.00
2023-04-22T18:29:20.653Z,96710.00
2023-04-22T18:31:47.266Z,96721.00
2023-04-22T18:34:15.075Z,96712.00
2023-04-22T18:36:41.384Z,96727.00
2023-04-22T18:39:08.671Z,96720.00
2023-04-22T18:41:34.933Z,96729.00
2023-04-22T18:44:01.413Z,96727.00
2023-04-22T18:46:27.932Z,96741.00
2023-04-22T18:48:54.404Z,96739.00
2023-04-22T18:51:20.769Z,96749.00
2023-04-22T18:53:48.412Z,96755.00
2023-04-22T18:56:15.028Z,96734.00
2023-04-22T18:58:41.266Z,96736.00
2023-04-22T19:01:07.735Z,96750.00
2023-04-22T19:03:36.083Z,96749.00
2023-04-22T19:06:02.966Z,96746.00
2023-04-22T19:08:29.677Z,96747.00
2023-04-22T19:10:56.117Z,96741.00
2023-04-22T19:13:29.591Z,96747.00
2023-04-22T19:15:57.337Z,96740.00
2023-04-22T19:18:23.865Z,96739.00
2023-04-22T19:20:50.388Z,96755.00
2023-04-22T19:23:16.693Z,96734.00
2023-04-22T19:25:42.985Z,96745.00
2023-04-22T19:28:09.178Z,96735.00
2023-04-22T19:30:35.515Z,96752.00
2023-04-22T19:33:01.956Z,96731.00
2023-04-22T19:35:28.521Z,96734.00
2023-04-22T19:37:55.063Z,96740.00
2023-04-22T19:40:21.484Z,96726.00
2023-04-22T19:42:47.683Z,96724.00
2023-04-22T19:45:14.141Z,96729.00
2023-04-22T19:47:40.973Z,96722.00
2023-04-22T19:50:08.862Z,96725.00
2023-04-22T19:52:35.664Z,96741.00
2023-04-22T19:55:08.146Z,96724.00
2023-04-22T19:57:41.402Z,96734.00
2023-04-22T20:00:10.397Z,96740.00
2023-04-22T20:02:41.479Z,96740.00
2023-04-22T20:05:08.619Z,96722.00
2023-04-22T20:07:37.936Z,96730.00
2023-04-22T20:10:06.737Z,96723.00
2023-04-22T20:12:33.847Z,96721.00
2023-04-22T20:15:01.527Z,96710.00
2023-04-22T20:17:28.124Z,96726.00
2023-04-22T20:19:55.186Z,96727.00
2023-04-22T20:22:23.979Z,96729.00
2023-04-22T20:25:01.520Z,96726.00
2023-04-22T20:27:30.361Z,96729.00
2023-04-22T20:29:58.438Z,96729.00
2023-04-22T20:32:25.808Z,96714.00
2023-04-22T20:34:53.463Z,96725.00
2023-04-22T20:37:21.791Z,96736.00
2023-04-22T20:39:50.099Z,96732.00
2023-04-22T20:42:18.067Z,96731.00
2023-04-22T20:44:44.682Z,96727.00
2023-04-22T20:47:13.042Z,96735.00
2023-04-22T20:49:41.454Z,96739.00
2023-04-22T20:52:09.119Z,96729.00
2023-04-22T20:54:36.988Z,96744.00
2023-04-22T20:57:05.091Z,96746.00
2023-04-22T20:59:35.379Z,96740.00
2023-04-22T21:02:05.762Z,96743.00
2023-04-22T21:04:33.089Z,96728.00
2023-04-22T21:07:03.508Z,96726.00
2023-04-22T21:09:31.580Z,96732.00
2023-04-22T21:11:58.081Z,96730.00
2023-04-22T21:14:27.672Z,96719.00
2023-04-22T21:17:08.655Z,96731.00
2023-04-22T21:19:36.996Z,96731.00
2023-04-22T21:22:05.363Z,96730.00
2023-04-22T21:24:34.136Z,96730.00
2023-04-22T21:27:01.025Z,96727.00
2023-04-22T21:29:28.230Z,96727.00
2023-04-22T21:32:08.089Z,96727.00
2023-04-22T21:34:35.427Z,96722.00
2023-04-22T21:37:01.999Z,96722.00
2023-04-22T21:39:29.087Z,96725.00
2023-04-22T21:41:55.387Z,96723.00
2023-04-22T21:44:21.814Z,96714.00
2023-04-22T21:46:47.960Z,96719.00
2023-04-22T21:49:14.110Z,96714.00
2023-04-22T21:51:40.352Z,96717.00
2023-04-22T21:54:06.650Z,96721.00
2023-04-22T21:56:34.241Z,96713.00
2023-04-22T21:59:01.078Z,96711.00
2023-04-22T22:01:27.251Z,96717.00
2023-04-22T22:03:53.669Z,96719.00
2023-04-22T22:06:19.991Z,96717.00
2023-04-22T22:08:46.661Z,96725.00
2023-04-22T22:11:27.626Z,96718.00
2023-04-22T22:13:56.838Z,96722.00
2023-04-22T22:16:23.892Z,96740.00
2023-04-22T22:18:51.006Z,96740.00
2023-04-22T22:21:17.801Z,96741.00
2023-04-22T22:23:44.008Z,96745.00
2023-04-22T22:26:10.646Z,96743.00
2023-04-22T22:28:37.227Z,96734.00
2023-04-22T22:31:04.342Z,96752.00
2023-04-22T22:33:30.867Z,96742.00
2023-04-22T22:35:57.098Z,96751.00
2023-04-22T22:38:23.281Z,96752.00
2023-04-22T22:40:50.275Z,96757.00
2023-04-22T22:43:16.421Z,96736.00
2023-04-22T22:45:42.955Z,96754.00
2023-04-22T22:48:09.411Z,96763.00
2023-04-22T22:50:35.575Z,96765.00
2023-04-22T22:53:01.970Z,96747.00
2023-04-22T22:55:28.413Z,96773.00
2023-04-22T22:57:54.543Z,96769.00
2023-04-22T23:00:21.114Z,96770.00
2023-04-22T23:02:47.686Z,96769.00
2023-04-22T23:05:14.252Z,96755.00
2023-04-22T23:07:40.702Z,96768.00
2023-04-22T23:10:08.072Z,96765.00
2023-04-22T23:12:34.717Z,96758.00
2023-04-22T23:15:01.152Z,96778.00
2023-04-22T23:17:27.598Z,96755.00
2023-04-22T23:19:55.141Z,96763.00
2023-04-22T23:22:22.549Z,96759.00
2023-04-22T23:24:49.256Z,96754.00
2023-04-22T23:27:16.662Z,96748.00
2023-04-22T23:29:43.799Z,96754.00
2023-04-22T23:32:14.833Z,96741.00
2023-04-22T23:34:44.962Z,96750.00
2023-04-22T23:37:14.963Z,96743.00
2023-04-22T23:39:42.085Z,96733.00
2023-04-22T23:42:08.260Z,96757.00
2023-04-22T23:44:35.103Z,96732.00
2023-04-22T23:47:01.944Z,96735.00
2023-04-22T23:49:28.802Z,96743.00
2023-04-22T23:51:55.152Z,96740.00
2023-04-22T23:54:21.660Z,96748.00
2023-04-22T23:56:48.488Z,96746.00
2023-04-22T23:59:15.025Z,96739.00
